createdAt,value
2023-08-15T00:00:00.448Z,37.4
2023-08-15T00:01:02.318Z,37.3
2023-08-15T00:02:04.258Z,37.3
2023-08-15T00:03:06.279Z,37.2
2023-08-15T00:04:08.442Z,37.2
2023-08-15T00:05:10.242Z,37.2
2023-08-15T00:06:11.960Z,37.1
2023-08-15T00:07:13.731Z,37.2
2023-08-15T00:08:15.460Z,37.2
2023-08-15T00:09:17.159Z,37.4
2023-08-15T00:10:18.837Z,37.3
2023-08-15T00:11:20.623Z,37.2
2023-08-15T00:12:22.519Z,37.4
2023-08-15T00:13:24.213Z,37.3
2023-08-15T00:14:26.010Z,37.3
2023-08-15T00:15:27.975Z,37.3
2023-08-15T00:16:29.736Z,37.5
2023-08-15T00:17:31.897Z,37.4
2023-08-15T00:18:33.805Z,37.2
2023-08-15T00:19:35.538Z,37.1
2023-08-15T00:20:37.253Z,37.3
2023-08-15T00:21:38.979Z,37
2023-08-15T00:22:40.827Z,37.2
2023-08-15T00:23:42.554Z,37.2
2023-08-15T00:24:44.345Z,37.2
2023-08-15T00:25:46.025Z,37.2
2023-08-15T00:26:47.783Z,37.3
2023-08-15T00:27:49.507Z,37.3
2023-08-15T00:28:51.299Z,37
2023-08-15T00:29:53.000Z,37.1
2023-08-15T00:30:54.726Z,37
2023-08-15T00:31:56.573Z,37.1
2023-08-15T00:33:01.459Z,37.1
2023-08-15T00:34:03.733Z,37.1
2023-08-15T00:35:05.576Z,37.1
2023-08-15T00:36:07.361Z,37.1
2023-08-15T00:37:09.118Z,37.2
2023-08-15T00:38:10.859Z,37.3
2023-08-15T00:39:13.130Z,37.3
2023-08-15T00:40:14.918Z,37.4
2023-08-15T00:41:16.658Z,37.2
2023-08-15T00:42:18.411Z,37.3
2023-08-15T00:43:20.220Z,37.4
2023-08-15T00:44:22.169Z,37.3
2023-08-15T00:45:24.036Z,37.2
2023-08-15T00:46:28.696Z,37.3
2023-08-15T00:47:31.007Z,37.3
2023-08-15T00:48:33.039Z,36.5
2023-08-15T00:49:34.772Z,36.6
2023-08-15T00:50:36.455Z,36.8
2023-08-15T00:51:38.178Z,36.7
2023-08-15T00:52:39.934Z,36.7
2023-08-15T00:53:41.706Z,36.9
2023-08-15T00:54:43.538Z,36.8
2023-08-15T00:55:45.631Z,36.7
2023-08-15T00:56:47.332Z,36.5
2023-08-15T00:57:49.070Z,36.5
2023-08-15T00:58:51.312Z,36.4
2023-08-15T00:59:55.905Z,36.3
2023-08-15T01:00:57.906Z,36.2
2023-08-15T01:01:59.750Z,36.2
2023-08-15T01:03:01.945Z,36.2
2023-08-15T01:04:04.181Z,36.2
2023-08-15T01:05:05.954Z,36.2
2023-08-15T01:06:07.659Z,36.1
2023-08-15T01:07:09.391Z,36.1
2023-08-15T01:08:11.175Z,35.9
2023-08-15T01:09:12.915Z,35.7
2023-08-15T01:10:19.672Z,35.7
2023-08-15T01:11:21.435Z,35.6
2023-08-15T01:12:23.166Z,35.6
2023-08-15T01:13:24.926Z,35.5
2023-08-15T01:14:26.674Z,35.5
2023-08-15T01:15:28.524Z,35.5
2023-08-15T01:16:30.492Z,35.5
2023-08-15T01:17:32.357Z,35.5
2023-08-15T01:18:34.057Z,35.6
2023-08-15T01:19:35.806Z,35.7
2023-08-15T01:20:37.543Z,35.6
2023-08-15T01:21:39.254Z,35.4
2023-08-15T01:22:41.023Z,35.3
2023-08-15T01:23:42.715Z,35.2
2023-08-15T01:24:44.516Z,35.3
2023-08-15T01:25:46.269Z,35.2
2023-08-15T01:26:47.973Z,35.1
2023-08-15T01:27:49.664Z,35.2
2023-08-15T01:28:51.451Z,35.2
2023-08-15T01:29:53.295Z,35.3
2023-08-15T01:30:55.026Z,35.3
2023-08-15T01:31:56.800Z,35.1
2023-08-15T01:33:01.752Z,35.1
2023-08-15T01:34:03.736Z,35.1
2023-08-15T01:35:05.604Z,35.1
2023-08-15T01:36:10.423Z,35.2
2023-08-15T01:37:12.191Z,35.2
2023-08-15T01:38:13.872Z,35.1
2023-08-15T01:39:15.625Z,35.2
2023-08-15T01:40:17.405Z,35.2
2023-08-15T01:41:19.079Z,35.1
2023-08-15T01:42:20.797Z,35
2023-08-15T01:43:22.500Z,34.9
2023-08-15T01:44:24.290Z,34.9
2023-08-15T01:45:26.272Z,34.9
2023-08-15T01:46:30.851Z,34.9
2023-08-15T01:47:32.759Z,34.9
2023-08-15T01:48:34.944Z,34.9
2023-08-15T01:49:36.699Z,35
2023-08-15T01:50:38.435Z,35
2023-08-15T01:51:40.141Z,35
2023-08-15T01:52:41.862Z,35.1
2023-08-15T01:53:43.526Z,35
2023-08-15T01:54:45.370Z,35
2023-08-15T01:55:47.189Z,35
2023-08-15T01:56:48.870Z,34.9
2023-08-15T01:57:50.721Z,35
2023-08-15T01:58:52.400Z,35.1
2023-08-15T01:59:54.194Z,35
2023-08-15T02:00:55.984Z,35
2023-08-15T02:01:58.102Z,34.8
2023-08-15T02:02:59.987Z,34.7
2023-08-15T02:04:02.005Z,34.6
2023-08-15T02:05:04.013Z,34.7
2023-08-15T02:06:05.820Z,34.8
2023-08-15T02:07:07.560Z,34.9
2023-08-15T02:08:09.264Z,35.1
2023-08-15T02:09:11.027Z,35.1
2023-08-15T02:10:12.706Z,34.9
2023-08-15T02:11:14.659Z,34.8
2023-08-15T02:12:16.600Z,34.8
2023-08-15T02:13:18.411Z,34.7
2023-08-15T02:14:20.176Z,34.7
2023-08-15T02:15:22.053Z,34.8
2023-08-15T02:16:23.783Z,34.9
2023-08-15T02:17:25.484Z,34.8
2023-08-15T02:18:27.538Z,34.7
2023-08-15T02:19:29.480Z,34.7
2023-08-15T02:20:31.216Z,34.7
2023-08-15T02:21:32.976Z,34.7
2023-08-15T02:22:34.912Z,34.7
2023-08-15T02:23:36.704Z,34.9
2023-08-15T02:24:38.484Z,34.8
2023-08-15T02:25:40.209Z,34.6
2023-08-15T02:26:41.993Z,34.6
2023-08-15T02:27:43.740Z,34.7
2023-08-15T02:28:45.507Z,34.8
2023-08-15T02:29:47.249Z,34.7
2023-08-15T02:30:49.203Z,34.6
2023-08-15T02:31:50.993Z,34.4
2023-08-15T02:32:52.740Z,34.4
2023-08-15T02:33:54.632Z,34.4
2023-08-15T02:34:56.341Z,34.4
2023-08-15T02:35:58.056Z,34.5
2023-08-15T02:36:59.757Z,34.4
2023-08-15T02:38:01.500Z,34.5
2023-08-15T02:39:03.191Z,34.6
2023-08-15T02:40:04.897Z,34.6
2023-08-15T02:41:06.582Z,34.8
2023-08-15T02:42:08.356Z,34.7
2023-08-15T02:43:10.133Z,34.6
2023-08-15T02:44:11.827Z,34.6
2023-08-15T02:45:13.569Z,34.5
2023-08-15T02:46:15.429Z,34.5
2023-08-15T02:47:17.169Z,34.5
2023-08-15T02:48:21.659Z,34.5
2023-08-15T02:49:23.366Z,34.5
2023-08-15T02:50:25.131Z,34.7
2023-08-15T02:51:26.821Z,35.3
2023-08-15T02:52:28.492Z,35.5
2023-08-15T02:53:30.233Z,35.8
2023-08-15T02:54:32.016Z,35.9
2023-08-15T02:55:33.709Z,36.3
2023-08-15T02:56:35.408Z,36.3
2023-08-15T02:57:37.125Z,36.3
2023-08-15T02:58:38.855Z,36.4
2023-08-15T02:59:43.429Z,36.6
2023-08-15T03:00:45.228Z,36.9
2023-08-15T03:01:47.605Z,36.9
2023-08-15T03:02:49.431Z,36.8
2023-08-15T03:03:51.174Z,36.6
2023-08-15T03:04:52.876Z,37
2023-08-15T03:05:54.706Z,37
2023-08-15T03:06:56.492Z,36.9
2023-08-15T03:07:58.223Z,36.9
2023-08-15T03:09:00.055Z,36.9
2023-08-15T03:10:01.950Z,36.9
2023-08-15T03:11:03.707Z,37.1
2023-08-15T03:12:05.428Z,37.2
2023-08-15T03:13:07.233Z,37.2
2023-08-15T03:14:08.907Z,37.5
2023-08-15T03:15:10.596Z,37.5
2023-08-15T03:16:12.456Z,37.7
2023-08-15T03:17:14.393Z,37.7
2023-08-15T03:18:16.171Z,37.8
2023-08-15T03:19:20.578Z,37.8
2023-08-15T03:20:22.342Z,38
2023-08-15T03:21:24.056Z,38.1
2023-08-15T03:22:25.767Z,38
2023-08-15T03:23:27.517Z,38.1
2023-08-15T03:24:29.291Z,38
2023-08-15T03:25:30.969Z,38.1
2023-08-15T03:26:32.693Z,38.1
2023-08-15T03:27:34.391Z,38.1
2023-08-15T03:28:36.229Z,38.1
2023-08-15T03:29:37.994Z,38.2
2023-08-15T03:30:39.752Z,38.3
2023-08-15T03:31:41.793Z,38.2
2023-08-15T03:32:43.855Z,38.1
2023-08-15T03:33:48.768Z,38.1
2023-08-15T03:34:50.504Z,38
2023-08-15T03:35:52.258Z,38.1
2023-08-15T03:36:54.010Z,38.2
2023-08-15T03:37:55.854Z,38
2023-08-15T03:38:57.579Z,38
2023-08-15T03:39:59.301Z,38
2023-08-15T03:41:00.970Z,38.1
2023-08-15T03:42:02.679Z,37.9
2023-08-15T03:43:08.308Z,38.2
2023-08-15T03:44:10.394Z,38.3
2023-08-15T03:45:12.136Z,38.5
2023-08-15T03:46:13.990Z,38.6
2023-08-15T03:47:16.231Z,38.6
2023-08-15T03:48:18.028Z,38.5
2023-08-15T03:49:19.778Z,38.6
2023-08-15T03:50:21.501Z,38.5
2023-08-15T03:51:47.288Z,38.5
2023-08-15T03:52:49.603Z,38.6
2023-08-15T03:53:51.280Z,38.6
2023-08-15T03:54:53.245Z,38.5
2023-08-15T03:55:57.960Z,38.5
2023-08-15T03:56:59.792Z,38.5
2023-08-15T03:58:01.514Z,38.6
2023-08-15T03:59:03.208Z,39.1
2023-08-15T04:00:04.997Z,38.4
2023-08-15T04:01:06.704Z,38.5
2023-08-15T04:02:08.601Z,38.4
2023-08-15T04:03:10.867Z,38.4
2023-08-15T04:04:12.929Z,38.4
2023-08-15T04:05:15.012Z,38.4
2023-08-15T04:06:16.702Z,38.3
2023-08-15T04:07:18.924Z,38.3
2023-08-15T04:08:21.593Z,38.5
2023-08-15T04:09:23.352Z,38.6
2023-08-15T04:10:25.116Z,38.4
2023-08-15T04:11:26.830Z,38.3
2023-08-15T04:12:28.559Z,38.5
2023-08-15T04:13:30.263Z,38.5
2023-08-15T04:14:32.024Z,38.5
2023-08-15T04:15:33.793Z,38.4
2023-08-15T04:16:35.709Z,38.4
2023-08-15T04:17:37.768Z,38.2
2023-08-15T04:18:39.777Z,38.5
2023-08-15T04:19:41.551Z,38.5
2023-08-15T04:20:43.278Z,38.5
2023-08-15T04:21:45.026Z,38.5
2023-08-15T04:22:46.731Z,38.6
2023-08-15T04:23:48.445Z,38.7
2023-08-15T04:24:50.247Z,38.8
2023-08-15T04:25:52.453Z,38.7
2023-08-15T04:26:55.322Z,38.7
2023-08-15T04:27:57.041Z,38.7
2023-08-15T04:28:58.818Z,38.7
2023-08-15T04:30:00.554Z,38.7
2023-08-15T04:31:02.384Z,38.6
2023-08-15T04:32:04.407Z,38.6
2023-08-15T04:33:06.771Z,38.7
2023-08-15T04:34:08.749Z,38.6
2023-08-15T04:35:10.522Z,38.5
2023-08-15T04:36:12.420Z,38.7
2023-08-15T04:37:14.184Z,38.7
2023-08-15T04:38:15.912Z,38.7
2023-08-15T04:39:17.709Z,38.8
2023-08-15T04:40:19.522Z,38.7
2023-08-15T04:41:21.482Z,38.6
2023-08-15T04:42:23.253Z,38.8
2023-08-15T04:43:24.960Z,38.7
2023-08-15T04:44:26.682Z,38.7
2023-08-15T04:45:28.402Z,38.7
2023-08-15T04:46:30.205Z,38.9
2023-08-15T04:47:32.133Z,38.9
2023-08-15T04:48:34.066Z,38.8
2023-08-15T04:49:35.799Z,38.8
2023-08-15T04:50:37.626Z,38.8
2023-08-15T04:51:39.349Z,38.9
2023-08-15T04:52:41.133Z,38.9
2023-08-15T04:53:42.853Z,38.8
2023-08-15T04:54:44.657Z,38.8
2023-08-15T04:55:46.374Z,38.7
2023-08-15T04:56:48.092Z,38.7
2023-08-15T04:57:50.088Z,38.6
2023-08-15T04:58:52.062Z,38.5
2023-08-15T04:59:53.903Z,37.9
2023-08-15T05:00:55.634Z,37.7
2023-08-15T05:01:57.380Z,37.8
2023-08-15T05:02:59.166Z,38
2023-08-15T05:04:00.956Z,38.2
2023-08-15T05:05:02.813Z,38
2023-08-15T05:06:07.939Z,37.7
2023-08-15T05:07:09.636Z,37.5
2023-08-15T05:08:11.374Z,37.6
2023-08-15T05:09:13.471Z,37.3
2023-08-15T05:10:18.114Z,37.3
2023-08-15T05:11:19.904Z,37.2
2023-08-15T05:12:21.658Z,37.1
2023-08-15T05:13:23.427Z,37.3
2023-08-15T05:14:25.176Z,37.2
2023-08-15T05:15:26.951Z,37
2023-08-15T05:16:28.635Z,37
2023-08-15T05:17:32.625Z,37.1
2023-08-15T05:18:34.438Z,37
2023-08-15T05:19:36.180Z,36.8
2023-08-15T05:20:37.950Z,36.7
2023-08-15T05:21:39.809Z,36.5
2023-08-15T05:22:41.753Z,36.4
2023-08-15T05:23:43.479Z,36.3
2023-08-15T05:24:45.227Z,36.3
2023-08-15T05:25:46.905Z,36.3
2023-08-15T05:26:48.679Z,36.2
2023-08-15T05:27:50.428Z,36.2
2023-08-15T05:28:52.245Z,36.3
2023-08-15T05:29:53.941Z,36.1
2023-08-15T05:30:55.881Z,35.7
2023-08-15T05:31:57.707Z,35.6
2023-08-15T05:32:59.629Z,35.8
2023-08-15T05:34:01.724Z,35.7
2023-08-15T05:35:03.463Z,35.7
2023-08-15T05:36:05.193Z,35.7
2023-08-15T05:37:07.038Z,35.8
2023-08-15T05:38:08.754Z,35.8
2023-08-15T05:39:10.417Z,35.6
2023-08-15T05:40:12.203Z,35.6
2023-08-15T05:41:14.117Z,35.4
2023-08-15T05:42:15.841Z,35.4
2023-08-15T05:43:17.625Z,35.3
2023-08-15T05:44:19.413Z,35.4
2023-08-15T05:45:21.153Z,35.3
2023-08-15T05:46:23.329Z,35.4
2023-08-15T05:47:25.272Z,35.1
2023-08-15T05:48:27.338Z,35.1
2023-08-15T05:49:29.180Z,35.1
2023-08-15T05:50:30.922Z,35.2
2023-08-15T05:51:32.763Z,35.1
2023-08-15T05:52:34.730Z,35
2023-08-15T05:53:36.447Z,35
2023-08-15T05:54:38.259Z,35
2023-08-15T05:55:40.054Z,35.1
2023-08-15T05:56:41.806Z,35.1
2023-08-15T05:57:43.569Z,35.1
2023-08-15T05:58:45.297Z,35.1
2023-08-15T05:59:47.136Z,35
2023-08-15T06:00:49.074Z,35
2023-08-15T06:01:50.980Z,35
2023-08-15T06:02:52.834Z,34.9
2023-08-15T06:03:55.362Z,34.8
2023-08-15T06:04:57.527Z,34.6
2023-08-15T06:05:59.347Z,34.7
2023-08-15T06:07:01.083Z,34.8
2023-08-15T06:08:02.912Z,34.9
2023-08-15T06:09:04.765Z,34.8
2023-08-15T06:10:06.567Z,34.7
2023-08-15T06:11:08.294Z,34.7
2023-08-15T06:12:10.078Z,34.6
2023-08-15T06:13:11.855Z,34.6
2023-08-15T06:14:13.631Z,34.7
2023-08-15T06:15:15.419Z,34.8
2023-08-15T06:16:17.237Z,34.8
2023-08-15T06:17:22.301Z,34.7
2023-08-15T06:18:25.151Z,34.4
2023-08-15T06:19:26.959Z,34.3
2023-08-15T06:20:28.666Z,34.3
2023-08-15T06:21:30.446Z,34.2
2023-08-15T06:22:32.263Z,34.4
2023-08-15T06:23:34.082Z,34.5
2023-08-15T06:24:36.073Z,34.7
2023-08-15T06:25:37.802Z,34.6
2023-08-15T06:26:39.750Z,34.4
2023-08-15T06:27:41.500Z,34.5
2023-08-15T06:28:43.231Z,34.5
2023-08-15T06:29:44.968Z,34.5
2023-08-15T06:30:46.800Z,34.5
2023-08-15T06:31:48.617Z,34.4
2023-08-15T06:32:50.517Z,34.2
2023-08-15T06:33:52.497Z,34.3
2023-08-15T06:34:54.256Z,34.5
2023-08-15T06:35:55.976Z,34.5
2023-08-15T06:36:57.897Z,34.4
2023-08-15T06:37:59.613Z,34.4
2023-08-15T06:39:01.323Z,34.5
2023-08-15T06:40:03.073Z,34.6
2023-08-15T06:41:04.858Z,34.5
2023-08-15T06:42:06.636Z,34.5
2023-08-15T06:43:08.428Z,34.5
2023-08-15T06:44:10.276Z,34.4
2023-08-15T06:45:12.017Z,34.3
2023-08-15T06:46:18.926Z,34.3
2023-08-15T06:47:21.330Z,34.3
2023-08-15T06:48:23.837Z,34.4
2023-08-15T06:49:25.705Z,34.4
2023-08-15T06:50:27.504Z,34.5
2023-08-15T06:51:29.278Z,34.5
2023-08-15T06:52:30.973Z,34.3
2023-08-15T06:53:33.032Z,34.3
2023-08-15T06:54:34.822Z,34.3
2023-08-15T06:55:36.609Z,34.7
2023-08-15T06:56:38.514Z,34.8
2023-08-15T06:57:40.282Z,34.8
2023-08-15T06:58:42.195Z,34.8
2023-08-15T06:59:44.006Z,34.8
2023-08-15T07:00:46.065Z,34.8
2023-08-15T07:01:49.542Z,34.9
2023-08-15T07:02:51.334Z,35
2023-08-15T07:03:53.888Z,35
2023-08-15T07:04:56.069Z,35
2023-08-15T07:05:57.817Z,35
2023-08-15T07:06:59.596Z,35.2
2023-08-15T07:08:01.328Z,35.8
2023-08-15T07:09:12.177Z,35.6
2023-08-15T07:10:13.997Z,35.6
2023-08-15T07:11:15.749Z,35.8
2023-08-15T07:12:17.588Z,35.7
2023-08-15T07:13:19.298Z,35.7
2023-08-15T07:14:21.113Z,35.8
2023-08-15T07:15:22.990Z,35.8
2023-08-15T07:16:24.978Z,35.9
2023-08-15T07:17:27.243Z,36
2023-08-15T07:18:29.152Z,36
2023-08-15T07:19:30.946Z,36
2023-08-15T07:20:34.824Z,36.3
2023-08-15T07:21:39.810Z,36.2
2023-08-15T07:22:41.527Z,36.5
2023-08-15T07:23:43.301Z,36.4
2023-08-15T07:24:45.101Z,36.3
2023-08-15T07:25:47.573Z,36.4
2023-08-15T07:26:49.326Z,36.6
2023-08-15T07:27:51.064Z,36.7
2023-08-15T07:28:52.784Z,36.6
2023-08-15T07:29:54.597Z,37
2023-08-15T07:30:56.463Z,36.8
2023-08-15T07:31:58.396Z,37
2023-08-15T07:33:00.419Z,37
2023-08-15T07:34:02.426Z,37
2023-08-15T07:35:04.149Z,37.1
2023-08-15T07:36:05.902Z,37.2
2023-08-15T07:37:07.715Z,37.1
2023-08-15T07:38:09.572Z,37.4
2023-08-15T07:39:11.356Z,37.3
2023-08-15T07:40:13.118Z,37.3
2023-08-15T07:41:14.927Z,37.5
2023-08-15T07:42:16.840Z,37.4
2023-08-15T07:43:18.601Z,37.7
2023-08-15T07:44:20.430Z,37.6
2023-08-15T07:45:22.459Z,37.7
2023-08-15T07:46:24.391Z,37.7
2023-08-15T07:47:26.797Z,37.7
2023-08-15T07:48:29.153Z,37.8
2023-08-15T07:49:30.849Z,37.8
2023-08-15T07:50:32.607Z,37.6
2023-08-15T07:51:34.433Z,37.7
2023-08-15T07:52:36.277Z,37.8
2023-08-15T07:53:38.021Z,38
2023-08-15T07:54:39.778Z,37.9
2023-08-15T07:55:41.532Z,37.8
2023-08-15T07:56:43.393Z,37.9
2023-08-15T07:57:45.265Z,37.9
2023-08-15T07:58:46.970Z,37.8
2023-08-15T07:59:48.722Z,38
2023-08-15T08:00:50.475Z,37.9
2023-08-15T08:01:52.491Z,38
2023-08-15T08:02:54.544Z,37.9
2023-08-15T08:03:56.690Z,37.9
2023-08-15T08:04:58.478Z,38
2023-08-15T08:06:00.617Z,38
2023-08-15T08:07:07.446Z,38
2023-08-15T08:08:09.635Z,38.2
2023-08-15T08:09:11.340Z,38.3
2023-08-15T08:10:13.130Z,38.3
2023-08-15T08:11:14.949Z,38.3
2023-08-15T08:12:16.884Z,38.4
2023-08-15T08:13:20.818Z,38.4
2023-08-15T08:14:22.759Z,38.5
2023-08-15T08:15:24.610Z,38.5
2023-08-15T08:16:26.612Z,38.5
2023-08-15T08:17:28.581Z,38.7
2023-08-15T08:18:30.550Z,38.7
2023-08-15T08:19:32.402Z,38.8
2023-08-15T08:20:36.940Z,38.7
2023-08-15T08:21:38.695Z,38.6
2023-08-15T08:22:40.427Z,38.7
2023-08-15T08:23:42.246Z,38.7
2023-08-15T08:24:45.334Z,38.8
2023-08-15T08:25:52.120Z,38.8
2023-08-15T08:26:53.843Z,39
2023-08-15T08:27:55.672Z,38.9
2023-08-15T08:28:57.422Z,39
2023-08-15T08:29:59.171Z,38.8
2023-08-15T08:31:01.013Z,38.9
2023-08-15T08:32:02.806Z,39.1
2023-08-15T08:33:04.621Z,39.3
2023-08-15T08:34:06.425Z,39.2
2023-08-15T08:35:08.284Z,39.1
2023-08-15T08:36:10.032Z,39.2
2023-08-15T08:37:11.760Z,39.2
2023-08-15T08:38:13.766Z,39.5
2023-08-15T08:39:32.450Z,39.3
2023-08-15T08:40:34.725Z,39.2
2023-08-15T08:41:36.421Z,39.1
2023-08-15T08:42:38.429Z,39.3
2023-08-15T08:43:43.550Z,39.3
2023-08-15T08:44:45.369Z,39.3
2023-08-15T08:45:49.973Z,39.3
2023-08-15T08:46:52.448Z,39.5
2023-08-15T08:47:54.458Z,39.5
2023-08-15T08:48:56.367Z,39.4
2023-08-15T08:49:58.246Z,39.5
2023-08-15T08:50:59.979Z,39.7
2023-08-15T08:52:01.856Z,39.7
2023-08-15T08:53:03.723Z,39.6
2023-08-15T08:54:05.451Z,39.7
2023-08-15T08:55:07.266Z,39.8
2023-08-15T08:56:09.036Z,39.7
2023-08-15T08:57:10.762Z,39.7
2023-08-15T08:58:12.740Z,39.6
2023-08-15T08:59:14.962Z,39.6
2023-08-15T09:00:18.943Z,39.5
2023-08-15T09:01:20.998Z,39.5
2023-08-15T09:02:23.501Z,39.6
2023-08-15T09:03:25.529Z,39.6
2023-08-15T09:04:27.927Z,39.6
2023-08-15T09:05:30.383Z,39.5
2023-08-15T09:06:32.222Z,39.6
2023-08-15T09:07:33.952Z,39.5
2023-08-15T09:08:35.739Z,39.6
2023-08-15T09:09:37.511Z,39.7
2023-08-15T09:10:39.389Z,39.7
2023-08-15T09:11:41.238Z,39.8
2023-08-15T09:12:43.003Z,39.9
2023-08-15T09:13:44.722Z,39.9
2023-08-15T09:14:46.611Z,40.1
2023-08-15T09:15:48.502Z,40
2023-08-15T09:16:50.540Z,40
2023-08-15T09:17:52.347Z,39.9
2023-08-15T09:18:54.309Z,39.9
2023-08-15T09:19:56.053Z,39.9
2023-08-15T09:20:57.821Z,39.8
2023-08-15T09:21:59.655Z,39.9
2023-08-15T09:23:01.598Z,39.9
2023-08-15T09:24:03.617Z,39.9
2023-08-15T09:25:05.315Z,39.9
2023-08-15T09:26:07.087Z,39.9
2023-08-15T09:27:08.904Z,40
2023-08-15T09:28:10.697Z,39.9
2023-08-15T09:29:12.594Z,40
2023-08-15T09:30:14.437Z,40.1
2023-08-15T09:31:16.298Z,40.1
2023-08-15T09:32:18.402Z,40.1
2023-08-15T09:33:20.127Z,40.2
2023-08-15T09:34:21.868Z,40.2
2023-08-15T09:35:23.605Z,40.2
2023-08-15T09:36:25.342Z,40.1
2023-08-15T09:37:27.146Z,40.1
2023-08-15T09:38:29.071Z,40.1
2023-08-15T09:39:30.838Z,40.1
2023-08-15T09:40:32.567Z,40.2
2023-08-15T09:41:34.452Z,40.2
2023-08-15T09:42:36.169Z,40.2
2023-08-15T09:43:37.972Z,40.2
2023-08-15T09:44:39.716Z,40.4
2023-08-15T09:45:41.516Z,40.3
2023-08-15T09:46:46.487Z,40.2
2023-08-15T09:47:52.001Z,40.2
2023-08-15T09:48:53.819Z,40.1
2023-08-15T09:49:55.523Z,40.2
2023-08-15T09:50:57.318Z,40.3
2023-08-15T09:51:59.138Z,40.4
2023-08-15T09:53:01.026Z,40.4
2023-08-15T09:54:02.755Z,40.4
2023-08-15T09:55:04.521Z,40.4
2023-08-15T09:56:06.237Z,40.3
2023-08-15T09:57:08.032Z,40.4
2023-08-15T09:58:09.855Z,40.4
2023-08-15T09:59:11.616Z,40.6
2023-08-15T10:00:13.864Z,40.6
2023-08-15T10:01:16.465Z,40.5
2023-08-15T10:02:18.479Z,40.3
2023-08-15T10:03:20.395Z,40.5
2023-08-15T10:04:22.381Z,40.5
2023-08-15T10:05:24.102Z,40.7
2023-08-15T10:06:25.801Z,40.6
2023-08-15T10:07:27.496Z,40.6
2023-08-15T10:08:29.359Z,40.6
2023-08-15T10:09:31.122Z,40.6
2023-08-15T10:10:32.881Z,40.5
2023-08-15T10:11:34.675Z,40.5
2023-08-15T10:12:36.495Z,40.5
2023-08-15T10:13:38.327Z,40.5
2023-08-15T10:14:40.122Z,40.6
2023-08-15T10:15:41.922Z,40.6
2023-08-15T10:16:43.982Z,40.7
2023-08-15T10:17:46.522Z,40.7
2023-08-15T10:18:48.864Z,40.6
2023-08-15T10:19:50.647Z,40.6
2023-08-15T10:20:52.506Z,40.6
2023-08-15T10:21:54.566Z,40.5
2023-08-15T10:22:56.434Z,40.6
2023-08-15T10:23:58.572Z,40.6
2023-08-15T10:25:03.134Z,40.5
2023-08-15T10:26:05.765Z,40.6
2023-08-15T10:27:07.559Z,40.6
2023-08-15T10:28:09.588Z,40.6
2023-08-15T10:29:11.977Z,40.5
2023-08-15T10:30:14.895Z,40.5
2023-08-15T10:31:18.653Z,40.4
2023-08-15T10:32:20.997Z,40.4
2023-08-15T10:33:23.640Z,40.4
2023-08-15T10:34:25.402Z,40.4
2023-08-15T10:35:33.291Z,40.5
2023-08-15T10:36:35.204Z,40.4
2023-08-15T10:37:37.203Z,40.4
2023-08-15T10:38:41.222Z,40.5
2023-08-15T10:39:43.259Z,40.5
2023-08-15T10:40:44.939Z,40.6
2023-08-15T10:41:46.679Z,40.7
2023-08-15T10:42:48.410Z,40.6
2023-08-15T10:43:50.216Z,40.6
2023-08-15T10:44:52.061Z,40.5
2023-08-15T10:45:54.107Z,40.6
2023-08-15T10:46:56.165Z,40.6
2023-08-15T10:48:03.722Z,40.6
2023-08-15T10:49:08.007Z,40.5
2023-08-15T10:50:09.925Z,40.5
2023-08-15T10:51:11.692Z,40.5
2023-08-15T10:52:13.504Z,40.5
2023-08-15T10:53:18.996Z,40.6
2023-08-15T10:54:20.925Z,40.6
2023-08-15T10:55:22.847Z,40.5
2023-08-15T10:56:24.695Z,40.5
2023-08-15T10:57:26.452Z,40.5
2023-08-15T10:58:28.198Z,40.5
2023-08-15T10:59:29.953Z,40.5
2023-08-15T11:00:31.752Z,40.5
2023-08-15T11:01:33.613Z,40.5
2023-08-15T11:02:35.545Z,40.5
2023-08-15T11:03:37.638Z,40.6
2023-08-15T11:04:42.919Z,40.5
2023-08-15T11:05:45.160Z,40.6
2023-08-15T11:06:46.969Z,40.5
2023-08-15T11:07:49.035Z,40.5
2023-08-15T11:08:50.796Z,40.6
2023-08-15T11:09:52.558Z,40.5
2023-08-15T11:10:54.359Z,40.6
2023-08-15T11:11:56.414Z,40.6
2023-08-15T11:12:58.284Z,40.6
2023-08-15T11:14:00.068Z,40.5
2023-08-15T11:15:01.852Z,40.5
2023-08-15T11:16:03.743Z,40.4
2023-08-15T11:17:05.668Z,40.4
2023-08-15T11:18:07.494Z,40.4
2023-08-15T11:19:09.711Z,40.4
2023-08-15T11:20:11.699Z,40.4
2023-08-15T11:21:13.838Z,40.5
2023-08-15T11:22:15.645Z,40.5
2023-08-15T11:23:17.351Z,40.6
2023-08-15T11:24:19.157Z,40.5
2023-08-15T11:25:20.915Z,40.4
2023-08-15T11:26:22.716Z,40.4
2023-08-15T11:27:24.842Z,40.3
2023-08-15T11:28:26.699Z,40.3
2023-08-15T11:29:28.437Z,40.2
2023-08-15T11:30:30.206Z,40.2
2023-08-15T11:31:32.199Z,40.2
2023-08-15T11:32:34.232Z,40.2
2023-08-15T11:33:36.062Z,40.1
2023-08-15T11:34:37.857Z,40.1
2023-08-15T11:35:39.684Z,40.1
2023-08-15T11:36:41.550Z,40
2023-08-15T11:37:43.479Z,40.1
2023-08-15T11:38:45.249Z,40.1
2023-08-15T11:39:47.018Z,40.1
2023-08-15T11:40:48.829Z,40.1
2023-08-15T11:41:50.725Z,40
2023-08-15T11:42:52.614Z,40
2023-08-15T11:43:54.416Z,40
2023-08-15T11:44:56.167Z,40
2023-08-15T11:45:58.054Z,40
2023-08-15T11:47:02.273Z,39.9
2023-08-15T11:48:04.416Z,40
2023-08-15T11:49:06.534Z,40
2023-08-15T11:50:08.358Z,40
2023-08-15T11:51:10.120Z,40
2023-08-15T11:52:11.865Z,40
2023-08-15T11:53:13.564Z,40
2023-08-15T11:54:15.331Z,39.9
2023-08-15T11:55:17.249Z,39.9
2023-08-15T11:56:18.990Z,39.9
2023-08-15T11:57:21.553Z,39.9
2023-08-15T11:58:24.283Z,39.9
2023-08-15T11:59:26.048Z,39.9
2023-08-15T12:00:27.861Z,39.9
2023-08-15T12:01:29.894Z,39.8
2023-08-15T12:02:32.013Z,39.8
2023-08-15T12:03:33.821Z,39.7
2023-08-15T12:04:35.685Z,39.7
2023-08-15T12:05:40.422Z,39.7
2023-08-15T12:06:45.425Z,39.7
2023-08-15T12:07:47.541Z,39.7
2023-08-15T12:08:49.276Z,39.6
2023-08-15T12:09:51.074Z,39.6
2023-08-15T12:10:52.823Z,39.5
2023-08-15T12:11:54.546Z,39.7
2023-08-15T12:12:56.324Z,39.7
2023-08-15T12:13:58.105Z,39.7
2023-08-15T12:14:59.855Z,39.7
2023-08-15T12:16:02.084Z,39.7
2023-08-15T12:17:04.359Z,39.7
2023-08-15T12:18:06.269Z,39.7
2023-08-15T12:19:08.513Z,39.7
2023-08-15T12:20:10.322Z,39.7
2023-08-15T12:21:14.943Z,39.6
2023-08-15T12:22:18.163Z,39.5
2023-08-15T12:23:29.493Z,39.7
2023-08-15T12:24:31.824Z,39.7
2023-08-15T12:25:33.676Z,39.7
2023-08-15T12:26:35.554Z,39.8
2023-08-15T12:27:40.387Z,39.8
2023-08-15T12:28:42.182Z,39.8
2023-08-15T12:30:16.487Z,39.8
2023-08-15T12:31:26.576Z,39.7
2023-08-15T12:32:28.645Z,39.7
2023-08-15T12:33:46.956Z,39.7
2023-08-15T12:34:50.043Z,39.6
2023-08-15T12:35:51.816Z,39.8
2023-08-15T12:36:53.589Z,39.7
2023-08-15T12:37:55.494Z,39.8
2023-08-15T12:38:57.278Z,39.9
2023-08-15T12:39:59.130Z,39.9
2023-08-15T12:41:00.923Z,40
2023-08-15T12:42:02.798Z,39.9
2023-08-15T12:43:04.795Z,40.1
2023-08-15T12:44:06.669Z,40.1
2023-08-15T12:45:08.403Z,40.1
2023-08-15T12:46:13.531Z,40.1
2023-08-15T12:47:18.592Z,40.1
2023-08-15T12:48:20.468Z,40.1
2023-08-15T12:49:22.288Z,40.2
2023-08-15T12:50:24.714Z,40.1
2023-08-15T12:51:26.694Z,40.2
2023-08-15T12:52:28.599Z,40.3
2023-08-15T12:53:30.385Z,40.3
2023-08-15T12:54:32.221Z,40.3
2023-08-15T12:55:33.953Z,40.3
2023-08-15T12:56:35.832Z,40.3
2023-08-15T12:57:37.668Z,40.3
2023-08-15T12:58:39.554Z,40.3
2023-08-15T12:59:41.409Z,40.3
2023-08-15T13:00:43.147Z,40.4
2023-08-15T13:01:44.938Z,40.4
2023-08-15T13:02:46.836Z,40.3
2023-08-15T13:03:48.920Z,40.4
2023-08-15T13:04:50.701Z,40.4
2023-08-15T13:05:52.685Z,40.4
2023-08-15T13:06:54.393Z,40.4
2023-08-15T13:07:56.289Z,40.5
2023-08-15T13:08:58.197Z,40.6
2023-08-15T13:10:00.217Z,40.6
2023-08-15T13:11:01.991Z,40.5
2023-08-15T13:12:03.747Z,40.5
2023-08-15T13:13:05.505Z,40.5
2023-08-15T13:14:07.286Z,40.6
2023-08-15T13:15:09.145Z,40.6
2023-08-15T13:16:10.960Z,40.5
2023-08-15T13:17:12.732Z,40.6
2023-08-15T13:18:14.764Z,40.6
2023-08-15T13:19:16.747Z,40.7
2023-08-15T13:20:18.485Z,40.8
2023-08-15T13:21:22.946Z,40.7
2023-08-15T13:22:25.399Z,40.7
2023-08-15T13:23:27.478Z,40.6
2023-08-15T13:24:29.501Z,40.8
2023-08-15T13:25:31.516Z,40.8
2023-08-15T13:26:33.272Z,40.8
2023-08-15T13:27:35.018Z,40.8
2023-08-15T13:28:36.753Z,40.8
2023-08-15T13:29:38.484Z,40.9
2023-08-15T13:30:40.402Z,41
2023-08-15T13:31:42.587Z,41
2023-08-15T13:32:44.376Z,41
2023-08-15T13:33:46.334Z,41
2023-08-15T13:34:48.079Z,41
2023-08-15T13:35:49.921Z,41
2023-08-15T13:36:51.664Z,41.1
2023-08-15T13:37:53.624Z,41
2023-08-15T13:38:55.570Z,41
2023-08-15T13:39:57.426Z,41
2023-08-15T13:40:59.275Z,41
2023-08-15T13:42:01.040Z,41
2023-08-15T13:43:02.891Z,41.1
2023-08-15T13:44:04.743Z,41.1
2023-08-15T13:45:10.178Z,41
2023-08-15T13:46:12.466Z,41
2023-08-15T13:47:17.658Z,41
2023-08-15T13:48:19.478Z,41
2023-08-15T13:49:21.245Z,41
2023-08-15T13:50:25.777Z,41
2023-08-15T13:51:27.598Z,41.1
2023-08-15T13:52:29.382Z,41
2023-08-15T13:53:31.261Z,41